Time;durP1;ratioP1;P1;durP2;ratioP2;P2;SDS_P1;SDS_P2;PMS_P1;PMS_P2;Temp;Humidity;BMP_temperature;BMP_pressure;BME280_temperature;BME280_humidity;BME280_pressure;Samples;Min_cycle;Max_cycle;Signal;HPM_P1;HPM_P2
2022/01/24 00:01:45;;;;;;;4.82;2.00;;;5.90;92.00;;;;;;6359141;22;19999;-75
2022/01/24 00:04:11;;;;;;;3.05;1.40;;;5.90;92.00;;;;;;6332166;22;20093;-75
2022/01/24 00:06:37;;;;;;;2.75;1.50;;;5.90;92.00;;;;;;6306758;22;20002;-76
2022/01/24 00:09:05;;;;;;;2.88;1.40;;;5.90;92.00;;;;;;6360401;22;19991;-75
2022/01/24 00:17:04;;;;;;;3.28;1.70;;;5.90;91.90;;;;;;6336294;22;20082;-75
2022/01/24 00:27:30;;;;;;;3.38;1.42;;;5.90;91.90;;;;;;6337875;22;20019;-75
2022/01/24 00:29:56;;;;;;;3.65;1.77;;;5.90;91.90;;;;;;6360512;22;20040;-74
2022/01/24 00:32:22;;;;;;;3.47;1.55;;;5.90;91.90;;;;;;6360052;22;19994;-75
2022/01/24 00:34:48;;;;;;;4.32;1.80;;;5.90;91.90;;;;;;6308069;22;20001;-75
2022/01/24 00:37:13;;;;;;;3.78;1.65;;;5.80;91.90;;;;;;6361138;22;19983;-75
2022/01/24 00:39:39;;;;;;;3.65;1.75;;;5.80;91.90;;;;;;6331935;22;20030;-75
2022/01/24 00:42:20;;;;;;;3.03;1.73;;;5.80;91.90;;;;;;6360631;22;19999;-75
2022/01/24 00:44:53;;;;;;;3.13;1.43;;;5.80;92.20;;;;;;6361216;22;19995;-75
2022/01/24 00:47:26;;;;;;;2.88;1.20;;;5.80;91.90;;;;;;6309996;22;20257;-75
2022/01/24 00:52:59;;;;;;;3.67;1.48;;;5.80;91.90;;;;;;6310289;22;20047;-75
2022/01/24 00:55:23;;;;;;;2.78;1.20;;;5.80;91.80;;;;;;6362044;22;19987;-76
2022/01/24 00:57:49;;;;;;;2.50;1.23;;;5.70;91.80;;;;;;6308428;22;19995;-75
2022/01/24 01:00:15;;;;;;;2.58;1.42;;;5.80;91.80;;;;;;6362056;22;19999;-76
2022/01/24 01:02:41;;;;;;;2.42;1.30;;;5.70;91.80;;;;;;6361909;22;20005;-75
2022/01/24 01:05:29;;;;;;;3.20;1.55;;;5.70;91.80;;;;;;6332225;22;20010;-75
2022/01/24 01:08:12;;;;;;;2.55;1.30;;;5.70;91.80;;;;;;6337126;22;20019;-75
2022/01/24 01:18:45;;;;;;;1.73;1.25;;;5.60;91.70;;;;;;6337022;22;20014;-75
2022/01/24 01:21:14;;;;;;;2.53;1.27;;;5.70;91.70;;;;;;6334468;22;19983;-75
2022/01/24 01:23:48;;;;;;;2.95;1.33;;;5.70;91.70;;;;;;6361024;22;19999;-75
2022/01/24 01:26:28;;;;;;;2.03;1.08;;;5.70;91.70;;;;;;6299290;22;20034;-76
2022/01/24 01:29:13;;;;;;;2.17;1.13;;;5.70;91.70;;;;;;6330277;22;19987;-75
2022/01/24 01:31:57;;;;;;;1.92;1.00;;;5.70;91.70;;;;;;6304042;22;20059;-76
2022/01/24 01:34:47;;;;;;;2.35;1.00;;;5.70;91.70;;;;;;6309010;22;20023;-76
2022/01/24 01:37:30;;;;;;;2.00;1.00;;;5.70;91.70;;;;;;6331185;22;20047;-76
2022/01/24 01:56:10;;;;;;;3.20;1.00;;;5.60;91.60;;;;;;6325129;22;20026;-74
2022/01/24 01:58:36;;;;;;;2.03;1.10;;;5.60;91.60;;;;;;6324130;22;20003;-74
2022/01/24 02:01:04;;;;;;;1.80;1.00;;;5.60;91.60;;;;;;6324086;22;20026;-75
2022/01/24 02:03:31;;;;;;;1.75;0.93;;;5.60;91.60;;;;;;6325598;22;20006;-75
2022/01/24 02:05:57;;;;;;;2.55;1.25;;;5.60;91.60;;;;;;6285635;22;20031;-75
2022/01/24 02:08:27;;;;;;;2.15;1.10;;;5.60;91.60;;;;;;6319197;22;19996;-75
2022/01/24 02:10:54;;;;;;;2.33;1.23;;;5.60;91.60;;;;;;6322833;22;20007;-74
2022/01/24 02:13:22;;;;;;;1.60;0.98;;;5.60;91.50;;;;;;6326160;22;19999;-74
2022/01/24 02:16:06;;;;;;;2.20;0.95;;;5.60;91.60;;;;;;6323108;22;20078;-75
2022/01/24 02:18:40;;;;;;;2.35;1.08;;;5.60;91.60;;;;;;6325601;22;20012;-74
2022/01/24 02:21:12;;;;;;;2.25;1.20;;;5.60;91.50;;;;;;6322319;22;20029;-74
2022/01/24 02:23:44;;;;;;;2.22;1.08;;;5.60;91.50;;;;;;6323790;22;20019;-74
2022/01/24 02:26:16;;;;;;;1.83;1.08;;;5.60;91.50;;;;;;6298950;22;20051;-75
2022/01/24 02:28:53;;;;;;;1.98;1.00;;;5.60;91.50;;;;;;6324563;22;20115;-74
2022/01/24 02:31:37;;;;;;;2.78;1.27;;;5.60;91.50;;;;;;6326235;22;19999;-75
2022/01/24 02:34:18;;;;;;;2.70;1.30;;;5.60;91.50;;;;;;6326140;22;19992;-75
2022/01/24 02:36:44;;;;;;;2.33;1.20;;;5.60;91.50;;;;;;6325305;22;19995;-75
2022/01/24 02:39:44;;;;;;;1.75;0.90;;;5.60;91.40;;;;;;6325231;22;20000;-75
2022/01/24 02:50:17;;;;;;;1.58;1.00;;;5.50;91.40;;;;;;6323460;22;20015;-75
2022/01/24 02:52:43;;;;;;;2.47;1.23;;;5.50;91.40;;;;;;6325555;22;19999;-75
2022/01/24 02:55:08;;;;;;;1.48;0.80;;;5.50;91.70;;;;;;6325097;22;19995;-75
2022/01/24 02:57:34;;;;;;;1.67;1.00;;;5.50;91.40;;;;;;6320224;22;20026;-75
2022/01/24 03:00:00;;;;;;;1.88;0.90;;;5.50;91.40;;;;;;6296347;22;20075;-75
2022/01/24 03:02:25;;;;;;;2.47;1.42;;;5.50;91.40;;;;;;6321268;22;20004;-75
2022/01/24 03:04:54;;;;;;;2.60;1.15;;;5.50;91.40;;;;;;6294892;22;20003;-74
2022/01/24 03:07:20;;;;;;;1.52;0.80;;;5.50;91.40;;;;;;6324316;22;20042;-74
2022/01/24 03:09:46;;;;;;;2.05;1.13;;;5.50;91.40;;;;;;6322126;22;20020;-75
2022/01/24 03:12:14;;;;;;;2.20;1.10;;;5.50;91.40;;;;;;6323156;22;20296;-75
2022/01/24 03:14:39;;;;;;;2.67;1.15;;;5.50;91.40;;;;;;6323718;22;20062;-75
2022/01/24 03:17:06;;;;;;;2.22;1.05;;;5.40;91.40;;;;;;6323088;22;19996;-75
2022/01/24 03:19:33;;;;;;;1.60;1.00;;;5.40;91.40;;;;;;6323115;22;20019;-75
2022/01/24 03:21:58;;;;;;;2.33;1.25;;;5.40;91.40;;;;;;6319404;22;20026;-75
2022/01/24 03:24:25;;;;;;;1.65;0.90;;;5.40;91.40;;;;;;6322083;22;20007;-75
2022/01/24 03:26:50;;;;;;;2.45;0.90;;;5.40;91.40;;;;;;6295642;22;20003;-75
2022/01/24 03:29:16;;;;;;;2.88;1.20;;;5.40;91.40;;;;;;6326785;22;20071;-75
2022/01/24 03:31:45;;;;;;;1.63;1.00;;;5.40;91.40;;;;;;6297762;22;19979;-75
2022/01/24 03:34:11;;;;;;;1.85;0.82;;;5.40;91.40;;;;;;6297676;22;20790;-75
2022/01/24 03:36:37;;;;;;;1.77;1.00;;;5.30;91.40;;;;;;6293244;22;20004;-75
2022/01/24 03:39:03;;;;;;;2.05;1.05;;;5.30;91.40;;;;;;6292592;22;20018;-75
2022/01/24 03:41:29;;;;;;;2.22;1.17;;;5.30;91.40;;;;;;6292924;22;20311;-75
2022/01/24 03:44:02;;;;;;;2.47;1.23;;;5.30;91.40;;;;;;6268031;22;20023;-75
2022/01/24 03:46:29;;;;;;;2.70;1.30;;;5.20;91.70;;;;;;6293006;22;20015;-74
2022/01/24 03:49:07;;;;;;;1.90;0.90;;;5.30;91.40;;;;;;6268702;22;20065;-75
2022/01/24 03:51:33;;;;;;;1.73;0.93;;;5.20;91.40;;;;;;6293897;22;19996;-75
2022/01/24 03:54:01;;;;;;;1.63;0.90;;;5.20;91.50;;;;;;6293021;22;20000;-74
2022/01/24 03:56:27;;;;;;;1.48;0.95;;;5.20;91.50;;;;;;6267834;22;20382;-75
2022/01/24 03:58:53;;;;;;;1.80;1.00;;;5.20;91.50;;;;;;6270031;22;20000;-75
2022/01/24 04:01:19;;;;;;;1.40;0.80;;;5.20;91.50;;;;;;6299993;22;20027;-75
2022/01/24 04:03:44;;;;;;;2.38;1.23;;;5.20;91.50;;;;;;6297821;22;20014;-75
2022/01/24 04:06:10;;;;;;;1.42;0.90;;;5.20;91.50;;;;;;6271621;22;20011;-75
2022/01/24 04:08:36;;;;;;;1.85;0.93;;;5.20;91.40;;;;;;6299132;22;20014;-75
2022/01/24 04:11:09;;;;;;;2.05;1.15;;;5.20;91.40;;;;;;6329540;22;20062;-75
2022/01/24 04:13:38;;;;;;;1.90;0.98;;;5.20;91.40;;;;;;6327190;22;19999;-75
2022/01/24 04:19:01;;;;;;;2.25;1.20;;;5.10;91.40;;;;;;6327094;22;20004;-75
2022/01/24 04:21:29;;;;;;;3.78;1.60;;;5.20;91.40;;;;;;6325686;22;20002;-75
2022/01/24 04:24:05;;;;;;;2.10;1.10;;;5.10;91.40;;;;;;6328008;22;20007;-75
2022/01/24 04:26:33;;;;;;;2.67;1.27;;;5.10;91.40;;;;;;6323468;22;20007;-75
2022/01/24 04:28:59;;;;;;;2.60;1.08;;;5.10;91.40;;;;;;6325445;22;20033;-76
2022/01/24 04:31:26;;;;;;;2.38;1.00;;;5.20;91.40;;;;;;6328489;22;19995;-75
2022/01/24 04:33:52;;;;;;;2.03;1.00;;;5.10;91.30;;;;;;6328544;22;19999;-75
2022/01/24 04:36:21;;;;;;;1.92;0.90;;;5.10;91.30;;;;;;6298706;22;20067;-76
2022/01/24 04:38:48;;;;;;;1.50;0.90;;;5.20;91.40;;;;;;6325923;22;19996;-76
2022/01/24 04:41:22;;;;;;;2.10;1.00;;;5.20;91.30;;;;;;6301849;22;19999;-75
2022/01/24 04:44:00;;;;;;;2.10;0.90;;;5.30;91.40;;;;;;6328428;22;20003;-76
2022/01/24 04:46:45;;;;;;;1.50;0.85;;;5.20;91.30;;;;;;6306232;22;20005;-75
2022/01/24 04:54:42;;;;;;;1.75;0.80;;;5.10;91.30;;;;;;6327535;22;20014;-75
2022/01/24 04:57:10;;;;;;;1.95;0.90;;;5.20;91.30;;;;;;6328672;22;19999;-76
2022/01/24 04:59:38;;;;;;;2.05;1.00;;;5.20;91.30;;;;;;6327981;22;19999;-75
2022/01/24 05:02:04;;;;;;;1.90;0.95;;;5.20;91.30;;;;;;6327679;22;20004;-75
2022/01/24 05:04:30;;;;;;;1.08;0.80;;;5.10;91.30;;;;;;6330490;22;20003;-76
2022/01/24 05:06:55;;;;;;;1.40;0.68;;;5.10;91.30;;;;;;6328988;22;20003;-75
2022/01/24 05:09:22;;;;;;;2.67;1.33;;;5.20;91.30;;;;;;6327717;22;20007;-76
2022/01/24 05:12:04;;;;;;;1.98;0.88;;;5.20;91.30;;;;;;6326758;22;19979;-76
2022/01/24 05:25:15;;;;;;;2.25;1.08;;;5.10;91.30;;;;;;6328281;22;20011;-77
2022/01/24 05:27:40;;;;;;;1.90;0.90;;;5.10;91.30;;;;;;6327672;22;19999;-76
2022/01/24 05:30:07;;;;;;;1.77;1.05;;;5.10;91.30;;;;;;6329990;22;20021;-75
2022/01/24 05:32:33;;;;;;;1.58;1.00;;;5.00;91.30;;;;;;6328905;22;19995;-75
2022/01/24 05:34:59;;;;;;;2.55;1.25;;;5.10;91.30;;;;;;6326124;22;20003;-75
2022/01/24 05:37:24;;;;;;;3.10;1.08;;;5.00;91.30;;;;;;6327080;22;20051;-75
2022/01/24 05:39:50;;;;;;;1.73;1.00;;;5.00;91.30;;;;;;6326898;22;20006;-76
2022/01/24 05:42:18;;;;;;;1.20;0.80;;;5.00;91.30;;;;;;6327446;22;20021;-75
2022/01/24 05:44:44;;;;;;;1.15;0.88;;;5.00;91.30;;;;;;6329593;22;20006;-76
2022/01/24 05:47:10;;;;;;;1.60;0.90;;;5.00;91.30;;;;;;6331529;22;20000;-76
2022/01/24 05:49:36;;;;;;;1.55;0.85;;;5.00;91.30;;;;;;6327296;22;20014;-75
2022/01/24 05:52:04;;;;;;;3.35;1.23;;;5.00;91.30;;;;;;6329888;22;20007;-76
2022/01/24 05:54:31;;;;;;;2.05;1.02;;;5.00;91.30;;;;;;6329265;22;20003;-75
2022/01/24 05:56:56;;;;;;;1.38;0.80;;;5.00;91.30;;;;;;6328423;22;19995;-76
2022/01/24 05:59:22;;;;;;;1.10;0.82;;;5.00;91.30;;;;;;6327581;22;19999;-76
2022/01/24 06:01:48;;;;;;;1.42;0.77;;;5.00;91.30;;;;;;6330748;22;20011;-75
2022/01/24 06:04:13;;;;;;;2.25;1.08;;;5.00;91.30;;;;;;6327947;22;20058;-75
2022/01/24 06:06:39;;;;;;;1.60;0.90;;;5.00;91.40;;;;;;6331013;22;20074;-76
2022/01/24 06:09:05;;;;;;;1.13;0.70;;;4.90;91.30;;;;;;6303653;22;20033;-76
2022/01/24 06:11:33;;;;;;;1.58;0.82;;;4.90;91.30;;;;;;6327897;22;19996;-76
2022/01/24 06:14:02;;;;;;;2.97;1.50;;;4.90;91.40;;;;;;6328022;22;20057;-75
2022/01/24 06:16:27;;;;;;;3.30;1.25;;;4.90;91.40;;;;;;6302589;22;20003;-76
2022/01/24 06:18:53;;;;;;;3.15;1.00;;;5.00;91.40;;;;;;6330435;22;20002;-75
2022/01/24 06:21:19;;;;;;;3.53;1.48;;;4.90;91.30;;;;;;6302322;22;19990;-75
2022/01/24 06:23:44;;;;;;;3.05;1.50;;;4.90;91.30;;;;;;6330782;22;20000;-75
2022/01/24 06:26:10;;;;;;;1.85;1.00;;;4.90;91.40;;;;;;6330408;22;19995;-75
2022/01/24 06:28:37;;;;;;;1.92;1.05;;;4.90;91.30;;;;;;6328783;22;19994;-75
2022/01/24 06:31:02;;;;;;;1.60;0.90;;;4.90;91.30;;;;;;6327195;22;20080;-76
2022/01/24 06:33:28;;;;;;;2.75;1.25;;;4.90;91.30;;;;;;6325208;22;20071;-76
2022/01/24 06:35:54;;;;;;;1.98;0.98;;;4.90;91.40;;;;;;6327771;22;19999;-75
2022/01/24 06:38:20;;;;;;;2.20;1.17;;;4.80;91.30;;;;;;6329022;22;20011;-75
2022/01/24 06:40:45;;;;;;;2.03;1.20;;;4.90;91.40;;;;;;6326084;22;19984;-76
2022/01/24 06:43:11;;;;;;;2.75;1.30;;;4.90;91.40;;;;;;6328607;22;19987;-76
2022/01/24 06:45:37;;;;;;;1.88;1.25;;;4.80;91.40;;;;;;6327619;22;20654;-76
2022/01/24 06:48:02;;;;;;;2.25;1.30;;;4.90;91.40;;;;;;6329224;22;20010;-76
2022/01/24 06:50:28;;;;;;;2.97;1.50;;;4.90;91.40;;;;;;6328130;22;20033;-76
2022/01/24 06:52:54;;;;;;;2.47;1.20;;;4.80;91.40;;;;;;6330420;22;20003;-75
2022/01/24 06:55:20;;;;;;;2.35;1.38;;;4.90;91.40;;;;;;6329630;22;19999;-76
2022/01/24 06:57:45;;;;;;;2.35;1.35;;;4.90;91.40;;;;;;6328740;22;20025;-76
2022/01/24 07:00:11;;;;;;;2.67;1.10;;;4.90;91.40;;;;;;6326545;22;19999;-76
2022/01/24 07:02:37;;;;;;;1.63;1.00;;;4.90;91.30;;;;;;6325968;22;19999;-75
2022/01/24 07:05:04;;;;;;;1.98;1.10;;;4.80;91.30;;;;;;6311290;22;20041;-76
2022/01/24 07:07:30;;;;;;;2.10;1.08;;;4.80;91.30;;;;;;6308626;22;19999;-76
2022/01/24 07:09:56;;;;;;;1.45;0.77;;;4.80;91.30;;;;;;6325334;22;20011;-75
2022/01/24 07:12:22;;;;;;;1.60;0.98;;;4.80;91.30;;;;;;6325066;22;20072;-75
2022/01/24 07:14:49;;;;;;;2.80;1.13;;;4.80;91.30;;;;;;6323059;22;20003;-76
2022/01/24 07:17:31;;;;;;;2.63;1.33;;;4.80;91.30;;;;;;6328196;22;19996;-75
2022/01/24 07:19:57;;;;;;;2.42;1.20;;;4.90;91.30;;;;;;6322950;22;20431;-74
2022/01/24 07:22:22;;;;;;;2.20;1.10;;;4.90;91.30;;;;;;6319713;22;20022;-75
2022/01/24 07:24:48;;;;;;;1.67;1.08;;;4.90;91.30;;;;;;6321649;22;20014;-74
2022/01/24 07:27:14;;;;;;;1.73;1.00;;;4.90;91.30;;;;;;6297133;22;20003;-75
2022/01/24 07:29:40;;;;;;;1.15;0.80;;;4.80;91.30;;;;;;6317199;22;20022;-75
2022/01/24 07:32:06;;;;;;;1.80;1.08;;;4.90;91.30;;;;;;6320708;22;19995;-75
2022/01/24 07:34:31;;;;;;;1.80;1.20;;;4.90;91.30;;;;;;6320532;22;20488;-74
2022/01/24 07:36:57;;;;;;;1.60;0.95;;;4.90;91.30;;;;;;6321893;22;20015;-75
2022/01/24 07:39:23;;;;;;;1.50;0.85;;;4.90;91.30;;;;;;6321770;22;20007;-75
2022/01/24 07:41:50;;;;;;;3.20;1.50;;;4.90;91.30;;;;;;6324797;22;20006;-75
2022/01/24 07:44:18;;;;;;;2.28;1.15;;;4.90;91.30;;;;;;6323434;22;20010;-76
2022/01/24 07:46:44;;;;;;;2.08;1.13;;;4.90;91.20;;;;;;6324402;22;20007;-76
2022/01/24 07:49:11;;;;;;;1.98;1.13;;;4.90;91.20;;;;;;6327644;22;20022;-75
2022/01/24 07:51:38;;;;;;;1.23;0.90;;;4.80;91.20;;;;;;6322115;22;20006;-74
2022/01/24 07:54:04;;;;;;;2.05;0.95;;;4.90;91.20;;;;;;6317642;22;19995;-75
2022/01/24 07:56:31;;;;;;;1.52;0.90;;;4.90;91.20;;;;;;6326372;22;20063;-75
2022/01/24 07:58:58;;;;;;;1.30;1.00;;;4.90;91.20;;;;;;6325925;22;19995;-75
2022/01/24 08:01:23;;;;;;;1.20;0.82;;;4.90;91.20;;;;;;6327642;22;20498;-75
2022/01/24 08:03:51;;;;;;;1.30;0.85;;;4.90;91.20;;;;;;6319583;22;20021;-75
2022/01/24 08:06:18;;;;;;;1.23;0.80;;;4.90;91.20;;;;;;6322184;22;20019;-75
2022/01/24 08:08:44;;;;;;;2.05;1.20;;;4.90;91.20;;;;;;6322517;22;20007;-74
2022/01/24 08:11:11;;;;;;;2.42;1.20;;;4.90;91.20;;;;;;6285144;22;20007;-75
2022/01/24 08:13:37;;;;;;;1.35;0.82;;;5.00;91.20;;;;;;6291797;22;20369;-74
2022/01/24 08:16:03;;;;;;;1.75;0.98;;;5.00;91.20;;;;;;6313181;22;20000;-75
2022/01/24 08:18:29;;;;;;;1.27;0.80;;;5.00;91.20;;;;;;6310943;22;20052;-74
2022/01/24 08:20:55;;;;;;;1.42;0.90;;;5.00;91.20;;;;;;6323548;22;19999;-75
2022/01/24 08:23:20;;;;;;;2.00;0.88;;;5.00;91.20;;;;;;6321310;22;20370;-75
2022/01/24 08:25:46;;;;;;;1.52;1.00;;;5.00;91.20;;;;;;6319195;22;20000;-74
2022/01/24 08:28:12;;;;;;;0.98;0.65;;;5.00;91.10;;;;;;6325910;22;19995;-77
2022/01/24 08:30:38;;;;;;;1.15;0.82;;;5.00;91.10;;;;;;6325184;22;20342;-75
2022/01/24 08:33:05;;;;;;;2.55;1.10;;;5.00;91.10;;;;;;6324034;22;19999;-75
2022/01/24 08:35:32;;;;;;;1.35;0.85;;;5.10;91.10;;;;;;6322260;22;20026;-76
2022/01/24 08:37:58;;;;;;;1.50;1.00;;;5.00;91.00;;;;;;6327846;22;20006;-77
2022/01/24 08:40:26;;;;;;;1.40;0.98;;;5.00;91.00;;;;;;6328785;22;19999;-76
2022/01/24 08:43:00;;;;;;;1.30;0.80;;;5.10;91.10;;;;;;6325651;22;20035;-77
2022/01/24 08:48:10;;;;;;;1.65;0.85;;;5.10;91.00;;;;;;6326240;22;20037;-76
2022/01/24 08:50:36;;;;;;;0.80;0.60;;;5.20;91.00;;;;;;6317613;22;20011;-76
2022/01/24 08:53:03;;;;;;;1.05;0.75;;;5.20;91.00;;;;;;6323900;22;19995;-77
2022/01/24 08:55:30;;;;;;;0.82;0.70;;;5.10;91.00;;;;;;6325730;22;19995;-76
2022/01/24 08:57:58;;;;;;;1.23;0.75;;;5.20;91.00;;;;;;6301810;22;20000;-76
2022/01/24 09:00:24;;;;;;;2.75;1.30;;;5.20;91.00;;;;;;6316226;22;19999;-75
2022/01/24 09:02:51;;;;;;;1.63;1.10;;;5.20;90.90;;;;;;6321660;22;20058;-76
2022/01/24 09:05:18;;;;;;;3.13;1.08;;;5.20;90.90;;;;;;6316484;22;20004;-75
2022/01/24 09:07:44;;;;;;;1.63;1.10;;;5.40;91.00;;;;;;6315455;22;19999;-75
2022/01/24 09:10:11;;;;;;;1.75;0.90;;;5.30;90.90;;;;;;6309927;22;20068;-75
2022/01/24 09:12:37;;;;;;;1.50;0.82;;;5.30;90.90;;;;;;6313948;22;20485;-74
2022/01/24 09:15:04;;;;;;;2.72;1.27;;;5.30;90.90;;;;;;6311201;22;20300;-74
2022/01/24 09:17:30;;;;;;;2.15;1.17;;;5.30;90.90;;;;;;6319148;22;20014;-74
2022/01/24 09:19:56;;;;;;;1.83;1.10;;;5.30;90.90;;;;;;6318408;22;20486;-74
2022/01/24 09:22:22;;;;;;;1.50;0.90;;;5.40;90.90;;;;;;6317622;22;19999;-75
2022/01/24 09:24:47;;;;;;;1.90;1.10;;;5.30;90.80;;;;;;6308721;22;20360;-73
2022/01/24 09:27:15;;;;;;;2.53;1.40;;;5.40;90.90;;;;;;6305943;22;20010;-73
2022/01/24 09:29:40;;;;;;;1.17;0.80;;;5.40;90.90;;;;;;6305982;22;20039;-75
2022/01/24 09:32:07;;;;;;;2.58;1.38;;;5.40;90.90;;;;;;6320775;22;19999;-75
2022/01/24 09:34:33;;;;;;;1.40;1.00;;;5.40;90.80;;;;;;6323323;22;19995;-75
2022/01/24 09:36:59;;;;;;;2.45;1.20;;;5.40;90.80;;;;;;6298594;22;20025;-76
2022/01/24 09:39:25;;;;;;;2.72;1.50;;;5.50;90.80;;;;;;6328733;22;19987;-76
2022/01/24 09:41:51;;;;;;;2.55;1.30;;;5.50;90.80;;;;;;6325118;22;20009;-77
2022/01/24 09:44:16;;;;;;;1.98;1.02;;;5.50;90.80;;;;;;6302865;22;20530;-77
2022/01/24 09:46:44;;;;;;;2.63;1.27;;;5.40;90.80;;;;;;6301147;22;20010;-76
2022/01/24 09:49:10;;;;;;;2.53;1.38;;;5.60;90.80;;;;;;6305363;22;20011;-77
2022/01/24 09:51:37;;;;;;;2.55;1.27;;;5.60;90.80;;;;;;6301666;22;20000;-77
2022/01/24 09:54:04;;;;;;;2.88;1.55;;;5.50;91.00;;;;;;6304948;22;20003;-75
2022/01/24 09:56:31;;;;;;;3.33;1.70;;;5.50;90.80;;;;;;6302053;22;19999;-76
2022/01/24 09:58:57;;;;;;;2.13;1.40;;;5.50;90.70;;;;;;6305654;22;20011;-76
2022/01/24 10:01:23;;;;;;;3.22;1.75;;;5.50;90.70;;;;;;6303968;22;20022;-76
2022/01/24 10:04:13;;;;;;;1.83;1.17;;;5.60;90.80;;;;;;6276732;22;20035;-75
2022/01/24 10:06:58;;;;;;;2.20;1.23;;;5.60;90.80;;;;;;6277426;22;20005;-76
2022/01/24 10:09:30;;;;;;;1.25;0.95;;;5.70;90.80;;;;;;6304513;22;20015;-75
2022/01/24 10:16:24;;;;;;;1.70;0.85;;;5.70;90.70;;;;;;6304866;22;20007;-75
2022/01/24 10:17:52;;;;;;;2.60;1.40;;;5.70;90.70;;;;;;6304638;22;20008;-76
2022/01/24 10:20:24;;;;;;;1.63;1.00;;;5.70;90.60;;;;;;6300457;22;20003;-75
2022/01/24 10:23:07;;;;;;;;;;;5.70;90.60;;;;;;6305987;22;19999;-75
2022/01/24 10:25:59;;;;;;;1.70;0.90;;;5.70;90.60;;;;;;6301798;22;19902;-75
2022/01/24 10:28:30;;;;;;;0.77;0.60;;;5.70;90.60;;;;;;6304476;22;20000;-76
2022/01/24 10:31:19;;;;;;;2.55;1.10;;;5.70;90.60;;;;;;6304289;22;20011;-76
2022/01/24 10:34:07;;;;;;;2.80;1.55;;;5.80;90.60;;;;;;6302061;22;20007;-76
2022/01/24 10:36:39;;;;;;;2.88;1.42;;;5.80;90.60;;;;;;6303024;22;20015;-76
2022/01/24 10:39:11;;;;;;;2.08;1.23;;;5.70;90.60;;;;;;6303234;22;20000;-77
2022/01/24 10:44:27;;;;;;;1.60;0.80;;;5.70;90.60;;;;;;6306071;22;20014;-76
2022/01/24 10:46:52;;;;;;;3.20;1.40;;;5.80;90.60;;;;;;6303450;22;19995;-76
2022/01/24 10:49:31;;;;;;;2.83;1.23;;;5.80;90.60;;;;;;6302192;22;20057;-76
2022/01/24 10:52:09;;;;;;;2.13;1.20;;;5.80;90.60;;;;;;6277187;22;20053;-76
2022/01/24 10:54:35;;;;;;;2.03;1.27;;;5.90;90.60;;;;;;6306351;22;20069;-76
2022/01/24 10:57:01;;;;;;;3.75;1.05;;;5.90;90.60;;;;;;6305740;22;20427;-75
2022/01/24 10:59:27;;;;;;;3.50;1.63;;;5.80;90.60;;;;;;6303817;22;20028;-76
2022/01/24 11:01:56;;;;;;;1.65;1.10;;;5.80;90.50;;;;;;6306009;22;20000;-75
2022/01/24 11:04:24;;;;;;;1.70;1.05;;;5.80;90.50;;;;;;6302865;22;20434;-76
2022/01/24 11:06:54;;;;;;;1.98;1.15;;;5.90;90.60;;;;;;6306255;22;20013;-75
2022/01/24 11:09:23;;;;;;;1.52;1.10;;;5.90;90.60;;;;;;6302702;22;20021;-76
2022/01/24 11:11:51;;;;;;;2.20;1.15;;;5.90;90.60;;;;;;6306482;22;20015;-75
2022/01/24 11:14:20;;;;;;;2.20;1.25;;;5.90;90.50;;;;;;6303452;22;20078;-75
2022/01/24 11:16:47;;;;;;;2.03;1.10;;;6.00;90.50;;;;;;6306346;22;20023;-75
2022/01/24 11:19:25;;;;;;;1.83;1.13;;;6.00;90.50;;;;;;6302206;22;20327;-74
2022/01/24 11:21:52;;;;;;;1.50;0.80;;;6.00;90.50;;;;;;6305740;22;20124;-75
2022/01/24 11:24:22;;;;;;;2.33;1.33;;;5.90;90.50;;;;;;6304705;22;20015;-75
2022/01/24 11:26:48;;;;;;;2.10;1.30;;;5.90;90.40;;;;;;6305623;22;20007;-75
2022/01/24 11:29:17;;;;;;;1.90;1.10;;;5.90;90.50;;;;;;6306131;22;20313;-78
2022/01/24 11:31:55;;;;;;;2.20;1.42;;;5.90;90.50;;;;;;6274203;22;20423;-77
2022/01/24 11:34:32;;;;;;;2.67;1.50;;;5.90;90.60;;;;;;6300647;22;20057;-77
2022/01/24 11:36:59;;;;;;;2.28;1.50;;;5.80;90.40;;;;;;6306210;22;20012;-77
2022/01/24 11:39:25;;;;;;;1.55;1.13;;;5.80;90.50;;;;;;6301191;22;20469;-77
2022/01/24 11:41:51;;;;;;;2.30;1.30;;;5.80;90.50;;;;;;6277786;22;20117;-77
2022/01/24 11:44:20;;;;;;;2.80;1.55;;;5.80;90.40;;;;;;6276333;22;20007;-76
2022/01/24 11:46:55;;;;;;;1.52;1.05;;;5.80;90.40;;;;;;6306097;22;20003;-76
2022/01/24 11:49:32;;;;;;;2.15;1.30;;;5.90;90.50;;;;;;6305173;22;20447;-76
2022/01/24 11:52:17;;;;;;;1.90;1.05;;;5.90;90.40;;;;;;6301732;22;19998;-75
2022/01/24 11:55:02;;;;;;;2.10;1.52;;;5.90;90.40;;;;;;6301363;22;20000;-76
2022/01/24 11:57:35;;;;;;;1.50;1.00;;;6.00;90.40;;;;;;6303610;22;20077;-75
2022/01/24 12:00:22;;;;;;;2.22;1.33;;;6.00;90.40;;;;;;6303592;22;20009;-76
2022/01/24 12:02:52;;;;;;;1.45;0.98;;;6.00;90.40;;;;;;6306093;22;20027;-76
2022/01/24 12:05:20;;;;;;;1.45;0.90;;;6.00;90.40;;;;;;6305539;22;20034;-76
2022/01/24 12:07:50;;;;;;;1.77;1.02;;;6.00;90.40;;;;;;6306248;22;20007;-77
2022/01/24 12:10:41;;;;;;;1.90;1.05;;;6.00;90.40;;;;;;6301844;22;20015;-76
2022/01/24 12:13:13;;;;;;;1.52;0.95;;;6.00;90.40;;;;;;6282154;22;20409;-76
2022/01/24 12:15:59;;;;;;;2.05;1.23;;;6.10;90.40;;;;;;6305477;22;19998;-76
2022/01/24 12:18:46;;;;;;;2.85;1.60;;;6.10;90.30;;;;;;6305764;22;20026;-76
2022/01/24 12:21:24;;;;;;;1.92;1.20;;;6.10;90.30;;;;;;6305696;22;20010;-76
2022/01/24 12:23:53;;;;;;;1.30;0.80;;;6.10;90.20;;;;;;6278066;22;20427;-76
2022/01/24 12:26:24;;;;;;;1.73;1.20;;;6.20;90.30;;;;;;6303582;22;20003;-77
2022/01/24 12:29:00;;;;;;;1.73;1.27;;;6.20;90.30;;;;;;6305966;22;20462;-74
2022/01/24 12:31:33;;;;;;;1.05;0.80;;;6.20;90.30;;;;;;6305828;22;19995;-75
2022/01/24 12:34:08;;;;;;;1.25;0.90;;;6.30;90.30;;;;;;6301687;22;19999;-76
2022/01/24 12:36:59;;;;;;;1.67;1.13;;;6.30;90.30;;;;;;6306018;22;20057;-76
2022/01/24 12:39:32;;;;;;;;;;;6.20;90.30;;;;;;6303769;22;20014;-75
2022/01/24 12:42:03;;;;;;;2.63;1.20;;;6.40;90.30;;;;;;6305381;22;20242;-76
2022/01/24 12:46:18;;;;;;;3.03;1.50;;;6.20;90.20;;;;;;6306042;22;20000;-76
2022/01/24 12:47:26;;;;;;;1.73;1.08;;;6.30;90.20;;;;;;6299450;22;20456;-77
2022/01/24 12:49:52;;;;;;;1.85;1.10;;;6.30;90.20;;;;;;6304840;22;20003;-75
2022/01/24 12:52:21;;;;;;;1.50;0.95;;;6.30;90.20;;;;;;6301681;22;20010;-74
2022/01/24 12:54:54;;;;;;;1.83;1.23;;;6.40;90.30;;;;;;6301963;22;20023;-75
2022/01/24 12:57:29;;;;;;;2.25;1.40;;;6.30;90.20;;;;;;6305447;22;20022;-75
2022/01/24 13:00:15;;;;;;;1.58;1.00;;;6.30;90.20;;;;;;6305441;22;20003;-75
2022/01/24 13:02:41;;;;;;;1.73;1.10;;;6.30;90.20;;;;;;6300707;22;20098;-76
2022/01/24 13:05:14;;;;;;;1.27;1.00;;;6.30;90.20;;;;;;6277301;22;20108;-76
2022/01/24 13:07:47;;;;;;;1.63;1.10;;;6.30;90.20;;;;;;6304103;22;20006;-75
2022/01/24 13:10:17;;;;;;;1.08;0.95;;;6.30;90.20;;;;;;6305684;22;20121;-75
2022/01/24 13:12:44;;;;;;;1.83;1.13;;;6.30;90.20;;;;;;6299682;22;20008;-75
2022/01/24 13:23:22;;;;;;;1.80;1.00;;;6.30;90.20;;;;;;6309603;22;20007;-76
2022/01/24 13:25:49;;;;;;;1.23;0.85;;;6.30;90.20;;;;;;6289211;22;20074;-76
2022/01/24 13:28:19;;;;;;;1.63;0.88;;;6.30;90.20;;;;;;6302846;22;20018;-76
2022/01/24 13:30:48;;;;;;;1.55;1.15;;;6.30;90.20;;;;;;6305172;22;20086;-76
2022/01/24 13:33:19;;;;;;;1.13;0.95;;;6.30;90.20;;;;;;6302174;22;20048;-76
2022/01/24 13:35:55;;;;;;;2.23;1.27;;;6.30;90.10;;;;;;6305194;22;20078;-76
2022/01/24 13:38:29;;;;;;;2.35;1.42;;;6.30;90.20;;;;;;6304725;22;19999;-76
2022/01/24 13:41:00;;;;;;;1.90;1.35;;;6.40;90.20;;;;;;6302362;22;20104;-76
2022/01/24 13:43:54;;;;;;;2.50;1.50;;;6.30;90.10;;;;;;6302796;22;20010;-77
2022/01/24 13:46:25;;;;;;;2.50;1.42;;;6.40;90.10;;;;;;6296970;22;20007;-77
2022/01/24 13:48:56;;;;;;;;;;;6.40;90.10;;;;;;6278100;22;20331;-75
2022/01/24 13:51:34;;;;;;;2.08;1.20;;;6.40;90.10;;;;;;6304858;22;19911;-75
2022/01/24 13:54:01;;;;;;;1.55;1.13;;;6.40;90.10;;;;;;6304856;22;19994;-75
2022/01/24 13:56:31;;;;;;;1.73;1.23;;;6.30;90.10;;;;;;6305260;22;20007;-75
2022/01/24 13:59:10;;;;;;;2.53;1.10;;;6.40;90.40;;;;;;6304373;22;20030;-75
2022/01/24 14:01:48;;;;;;;2.42;1.38;;;6.40;90.10;;;;;;6303034;22;20008;-74
2022/01/24 14:04:23;;;;;;;2.22;1.23;;;6.40;90.10;;;;;;6305100;22;19999;-74
2022/01/24 14:06:56;;;;;;;1.77;1.20;;;6.40;90.10;;;;;;6300897;22;20011;-74
2022/01/24 14:09:31;;;;;;;1.70;1.25;;;6.40;90.10;;;;;;6304138;22;20455;-74
2022/01/24 14:11:57;;;;;;;1.60;1.15;;;6.40;90.10;;;;;;6302228;22;20003;-74
2022/01/24 14:14:30;;;;;;;2.13;1.30;;;6.40;90.10;;;;;;6306742;22;20083;-75
2022/01/24 14:17:09;;;;;;;1.85;1.33;;;6.40;90.10;;;;;;6306226;22;19996;-75
2022/01/24 14:19:35;;;;;;;3.35;1.80;;;6.50;90.40;;;;;;6303985;22;20034;-75
2022/01/24 14:22:05;;;;;;;1.80;1.30;;;6.40;90.10;;;;;;6306225;22;19999;-74
2022/01/24 14:24:50;;;;;;;1.70;1.20;;;6.50;90.10;;;;;;6302775;22;20000;-73
2022/01/24 14:27:35;;;;;;;2.03;1.23;;;6.40;90.10;;;;;;6306024;22;20007;-75
2022/01/24 14:30:15;;;;;;;2.50;1.55;;;6.40;90.10;;;;;;6306349;22;20431;-76
2022/01/24 14:32:59;;;;;;;1.83;1.27;;;6.40;90.10;;;;;;6277122;22;19999;-76
2022/01/24 14:35:26;;;;;;;1.75;1.00;;;6.40;90.10;;;;;;6276745;22;20027;-75
2022/01/24 14:37:55;;;;;;;1.63;1.20;;;6.40;90.10;;;;;;6306143;22;20083;-76